עמוד ראשי
METAR-TAF:

METAR-TAF

שדות תעופה :

Abadeh, איראן

קו רוחב: 31-11N, קו אורך: 052-40E, גובה: 2004מטר

תצפית מזג אוויר נוכחית

הדו"ח נערך לפני 35דקות, בשעה 06:00 UTC
רוח 8קשר מכיוון צפון/צפון-מזרח
טמפרטורת 26 צלסיוס
לחות 21%
לחץ 1020 hPa
ראות: 6000מטר

METAR: OISA 200600Z 02008KT 6000 NSC 26/02 Q1020 A3013

זמן: 11:05 (06:35 UTC)


TAF: חסר

תצפיות ותחזיות מזג אוויר לגבי יותר מ- 4,000 שדות תעופה ברחבי העולם. דוחות METAR ו- TAF.

התחנות הזמינות מסומנות בנקודות צהובות ואדומות על גבי המפה.

העבר את העכבר לנקודה הצבעונית על מנת לראות את שם התחנה.

לאחר מכן, לחץ כדי לראות את תוכן ואת תחזיות מזג האוויר.

כדי לשנות את המפה: לחץ על הכפתורים הירוקים עם הפלוס השחור כדי להתקרב; על הכפתור הירוק עם המקף כדי להתרחק; או בחיצים הירוקים למפות סמוכות.


METAR-TAF: